createdAt,value
2023-05-16T00:00:41.430Z,4.70
2023-05-16T00:03:11.784Z,4.30
2023-05-16T00:05:39.103Z,5.07
2023-05-16T00:08:06.617Z,4.57
2023-05-16T00:10:34.744Z,3.97
2023-05-16T00:13:02.236Z,4.23
2023-05-16T00:15:30.095Z,3.90
2023-05-16T00:18:00.329Z,4.27
2023-05-16T00:20:28.159Z,4.90
2023-05-16T00:22:55.709Z,4.50
2023-05-16T00:25:23.319Z,5.00
2023-05-16T00:27:50.446Z,4.87
2023-05-16T00:30:17.187Z,5.10
2023-05-16T00:32:44.075Z,6.20
2023-05-16T00:35:11.777Z,5.40
2023-05-16T00:37:38.864Z,6.03
2023-05-16T00:40:06.449Z,6.30
2023-05-16T00:42:33.589Z,6.37
2023-05-16T00:45:00.711Z,7.60
2023-05-16T00:47:27.507Z,6.50
2023-05-16T00:49:55.075Z,6.87
2023-05-16T00:52:21.983Z,7.30
2023-05-16T00:54:49.111Z,8.37
2023-05-16T00:57:16.355Z,8.97
2023-05-16T00:59:46.183Z,11.50
2023-05-16T01:02:13.552Z,12.03
2023-05-16T01:04:40.489Z,13.10
2023-05-16T01:07:07.709Z,14.03
2023-05-16T01:09:35.606Z,13.13
2023-05-16T01:12:29.594Z,13.00
2023-05-16T01:15:34.360Z,10.70
2023-05-16T01:18:08.764Z,8.67
2023-05-16T01:20:56.912Z,7.23
2023-05-16T01:23:53.076Z,6.40
2023-05-16T01:26:26.824Z,6.40
2023-05-16T01:28:54.576Z,5.93
2023-05-16T01:31:22.233Z,7.03
2023-05-16T01:33:49.751Z,8.93
2023-05-16T01:36:26.490Z,10.20
2023-05-16T01:39:15.846Z,11.73
2023-05-16T01:42:08.806Z,12.40
2023-05-16T01:44:50.498Z,13.53
2023-05-16T01:47:19.784Z,14.60
2023-05-16T01:50:01.345Z,15.27
2023-05-16T01:52:33.832Z,15.37
2023-05-16T01:55:02.105Z,17.13
2023-05-16T01:57:29.653Z,16.33
2023-05-16T01:59:58.637Z,17.20
2023-05-16T02:02:25.777Z,16.47
2023-05-16T02:04:52.954Z,14.03
2023-05-16T02:07:20.097Z,13.27
2023-05-16T02:09:47.275Z,12.00
2023-05-16T02:12:14.346Z,11.33
2023-05-16T02:14:40.997Z,11.80
2023-05-16T02:17:07.869Z,11.17
2023-05-16T02:19:35.068Z,13.10
2023-05-16T02:22:01.761Z,12.37
2023-05-16T02:24:28.938Z,12.67
2023-05-16T02:26:55.734Z,12.07
2023-05-16T02:29:22.804Z,10.97
2023-05-16T02:31:49.884Z,9.30
2023-05-16T02:34:17.008Z,8.70
2023-05-16T02:36:43.649Z,7.83
2023-05-16T02:39:11.200Z,8.40
2023-05-16T02:41:37.908Z,8.30
2023-05-16T02:44:05.027Z,8.40
2023-05-16T02:46:34.395Z,6.90
2023-05-16T02:49:01.888Z,6.57
2023-05-16T02:51:29.266Z,6.50
2023-05-16T02:53:59.800Z,6.40
2023-05-16T02:56:27.687Z,5.37
2023-05-16T02:58:55.734Z,5.40
2023-05-16T03:01:22.796Z,5.37
2023-05-16T03:03:50.199Z,4.87
2023-05-16T03:06:17.150Z,4.80
2023-05-16T03:08:43.816Z,5.80
2023-05-16T03:11:11.026Z,6.33
2023-05-16T03:13:37.754Z,5.30
2023-05-16T03:16:05.533Z,5.20
2023-05-16T03:18:33.231Z,5.90
2023-05-16T03:21:01.445Z,5.83
2023-05-16T03:23:36.022Z,5.10
2023-05-16T03:26:07.668Z,5.80
2023-05-16T03:28:41.208Z,5.40
2023-05-16T03:31:12.838Z,6.57
2023-05-16T03:33:43.219Z,6.03
2023-05-16T03:36:13.377Z,6.77
2023-05-16T03:38:40.944Z,5.93
2023-05-16T03:41:08.015Z,6.37
2023-05-16T03:43:35.081Z,5.27
2023-05-16T03:46:02.580Z,5.97
2023-05-16T03:48:29.774Z,5.80
2023-05-16T03:50:57.175Z,5.47
2023-05-16T03:53:24.276Z,5.17
2023-05-16T03:55:51.004Z,5.03
2023-05-16T03:58:17.787Z,4.70
2023-05-16T04:00:46.670Z,5.70
2023-05-16T04:03:13.520Z,5.20
2023-05-16T04:05:40.302Z,4.23
2023-05-16T04:08:07.126Z,5.57
2023-05-16T04:10:33.830Z,4.77
2023-05-16T04:13:00.547Z,4.70
2023-05-16T04:15:27.878Z,4.30
2023-05-16T04:17:54.915Z,5.50
2023-05-16T04:20:22.065Z,4.57
2023-05-16T04:22:49.320Z,5.17
2023-05-16T04:25:16.629Z,4.70
2023-05-16T04:27:43.722Z,4.50
2023-05-16T04:30:11.782Z,4.90
2023-05-16T04:32:38.537Z,4.73
2023-05-16T04:35:05.917Z,5.03
2023-05-16T04:37:32.583Z,5.10
2023-05-16T04:39:59.296Z,4.40
2023-05-16T04:42:26.815Z,4.20
2023-05-16T04:44:53.512Z,4.80
2023-05-16T04:47:20.850Z,4.67
2023-05-16T04:49:47.629Z,4.67
2023-05-16T04:52:14.786Z,5.40
2023-05-16T04:54:41.569Z,4.73
2023-05-16T04:57:08.718Z,4.87
2023-05-16T04:59:35.562Z,5.30
2023-05-16T05:02:02.718Z,4.60
2023-05-16T05:04:29.895Z,4.77
2023-05-16T05:06:57.801Z,4.70
2023-05-16T05:09:24.591Z,4.73
2023-05-16T05:11:51.390Z,4.10
2023-05-16T05:14:18.100Z,3.87
2023-05-16T05:16:44.797Z,4.53
2023-05-16T05:19:11.555Z,3.77
2023-05-16T05:21:38.766Z,4.23
2023-05-16T05:24:05.946Z,4.53
2023-05-16T05:26:32.702Z,4.73
2023-05-16T05:29:05.518Z,4.60
2023-05-16T05:31:36.608Z,4.73
2023-05-16T05:34:03.634Z,4.83
2023-05-16T05:36:31.497Z,4.57
2023-05-16T05:38:58.574Z,3.60
2023-05-16T05:41:26.270Z,3.40
2023-05-16T05:43:53.439Z,3.33
2023-05-16T05:46:20.600Z,3.40
2023-05-16T05:48:47.459Z,2.83
2023-05-16T05:51:14.349Z,3.00
2023-05-16T05:53:42.061Z,2.90
2023-05-16T05:56:08.794Z,2.40
2023-05-16T05:58:36.237Z,2.53
2023-05-16T06:01:02.989Z,2.83
2023-05-16T06:03:30.394Z,2.53
2023-05-16T06:05:57.175Z,2.60
2023-05-16T06:08:24.328Z,2.73
2023-05-16T06:10:51.392Z,2.97
2023-05-16T06:13:18.490Z,2.70
2023-05-16T06:15:49.545Z,2.80
2023-05-16T06:18:16.748Z,2.83
2023-05-16T06:20:44.005Z,2.93
2023-05-16T06:23:11.419Z,2.50
2023-05-16T06:25:38.331Z,3.10
2023-05-16T06:28:05.160Z,2.80
2023-05-16T06:30:32.337Z,2.77
2023-05-16T06:32:59.488Z,3.03
2023-05-16T06:35:27.141Z,2.73
2023-05-16T06:37:54.052Z,3.03
2023-05-16T06:40:20.755Z,2.60
2023-05-16T06:42:47.892Z,2.37
2023-05-16T06:45:14.741Z,2.53
2023-05-16T06:47:41.933Z,2.87
2023-05-16T06:50:10.166Z,2.63
2023-05-16T06:52:36.965Z,2.60
2023-05-16T06:55:04.375Z,2.87
2023-05-16T06:57:31.618Z,2.50
2023-05-16T06:59:58.333Z,2.47
2023-05-16T07:02:25.783Z,2.43
2023-05-16T07:04:52.570Z,2.37
2023-05-16T07:07:19.687Z,2.30
2023-05-16T07:09:46.824Z,2.40
2023-05-16T07:12:13.942Z,2.20
2023-05-16T07:14:41.653Z,2.20
2023-05-16T07:17:08.528Z,2.77
2023-05-16T07:19:35.590Z,2.60
2023-05-16T07:22:02.335Z,2.70
2023-05-16T07:24:29.510Z,2.13
2023-05-16T07:26:56.257Z,2.30
2023-05-16T07:29:22.955Z,2.73
2023-05-16T07:31:49.820Z,2.87
2023-05-16T07:34:17.158Z,2.23
2023-05-16T07:36:44.053Z,1.93
2023-05-16T07:39:10.808Z,2.00
2023-05-16T07:41:37.544Z,1.93
2023-05-16T07:44:04.263Z,2.03
2023-05-16T07:46:31.120Z,2.20
2023-05-16T07:48:58.133Z,2.20
2023-05-16T07:51:24.938Z,2.10
2023-05-16T07:53:52.040Z,2.20
2023-05-16T07:56:18.884Z,2.20
2023-05-16T07:58:45.902Z,2.33
2023-05-16T08:01:12.946Z,2.40
2023-05-16T08:03:39.790Z,2.30
2023-05-16T08:06:06.826Z,2.23
2023-05-16T08:08:33.765Z,2.40
2023-05-16T08:11:00.484Z,2.77
2023-05-16T08:13:27.234Z,1.90
2023-05-16T08:15:53.966Z,2.30
2023-05-16T08:18:22.471Z,2.00
2023-05-16T08:20:49.685Z,2.53
2023-05-16T08:23:16.438Z,2.70
2023-05-16T08:25:43.187Z,2.30
2023-05-16T08:28:10.006Z,1.97
2023-05-16T08:30:36.787Z,1.77
2023-05-16T08:33:05.131Z,2.40
2023-05-16T08:35:32.178Z,1.80
2023-05-16T08:37:58.910Z,1.73
2023-05-16T08:40:27.242Z,1.53
2023-05-16T08:42:54.388Z,1.67
2023-05-16T08:45:22.754Z,1.80
2023-05-16T08:47:53.786Z,1.50
2023-05-16T08:50:21.275Z,1.80
2023-05-16T08:52:51.477Z,2.00
2023-05-16T08:55:20.688Z,2.27
2023-05-16T08:57:49.328Z,2.20
2023-05-16T09:00:17.361Z,1.80
2023-05-16T09:02:44.791Z,1.90
2023-05-16T09:05:13.758Z,2.50
2023-05-16T09:07:44.674Z,2.20
2023-05-16T09:10:12.483Z,2.30
2023-05-16T09:12:41.112Z,2.20
2023-05-16T09:15:10.129Z,1.87
2023-05-16T09:17:43.792Z,27.43
2023-05-16T09:20:13.517Z,2.30
2023-05-16T09:22:41.102Z,2.23
2023-05-16T09:25:12.681Z,2.60
2023-05-16T09:27:48.561Z,1.90
2023-05-16T09:30:17.018Z,1.90
2023-05-16T09:32:45.152Z,2.30
2023-05-16T09:35:19.594Z,3.10
2023-05-16T09:37:54.532Z,2.37
2023-05-16T09:40:23.527Z,2.43
2023-05-16T09:43:06.925Z,2.10
2023-05-16T09:45:35.297Z,2.10
2023-05-16T09:48:05.859Z,2.20
2023-05-16T09:50:34.722Z,1.90
2023-05-16T09:53:02.356Z,2.17
2023-05-16T09:55:29.652Z,1.60
2023-05-16T09:57:56.948Z,1.97
2023-05-16T10:00:34.134Z,1.80
2023-05-16T10:03:05.455Z,2.10
2023-05-16T10:05:33.243Z,2.60
2023-05-16T10:08:02.332Z,2.07
2023-05-16T10:10:30.211Z,2.20
2023-05-16T10:13:01.358Z,2.37
2023-05-16T10:15:29.527Z,2.40
2023-05-16T10:18:00.054Z,2.20
2023-05-16T10:20:27.483Z,2.03
2023-05-16T10:22:56.622Z,1.97
2023-05-16T10:25:34.611Z,2.17
2023-05-16T10:28:02.549Z,1.83
2023-05-16T10:30:29.767Z,2.27
2023-05-16T10:32:57.687Z,1.80
2023-05-16T10:35:24.649Z,2.17
2023-05-16T10:37:52.404Z,1.97
2023-05-16T10:40:20.455Z,2.30
2023-05-16T10:42:57.167Z,1.80
2023-05-16T10:45:24.408Z,2.10
2023-05-16T10:47:55.931Z,1.60
2023-05-16T10:50:45.201Z,1.60
2023-05-16T10:53:32.483Z,2.20
2023-05-16T10:55:59.172Z,2.40
2023-05-16T10:58:41.105Z,2.53
2023-05-16T11:01:29.999Z,2.00
2023-05-16T11:03:59.657Z,2.10
2023-05-16T11:06:49.495Z,2.00
2023-05-16T11:09:22.197Z,1.97
2023-05-16T11:11:51.900Z,1.60
2023-05-16T11:14:34.969Z,2.07
2023-05-16T11:17:12.274Z,1.97
2023-05-16T11:19:51.087Z,1.90
2023-05-16T11:22:23.795Z,1.70
2023-05-16T11:25:07.094Z,1.83
2023-05-16T11:27:42.771Z,1.80
2023-05-16T11:30:13.599Z,1.70
2023-05-16T11:32:43.058Z,2.30
2023-05-16T11:35:14.805Z,2.80
2023-05-16T11:37:42.834Z,3.00
2023-05-16T11:40:12.255Z,3.10
2023-05-16T11:42:49.207Z,2.23
2023-05-16T11:45:17.120Z,1.87
2023-05-16T11:47:50.544Z,1.97
2023-05-16T11:50:23.551Z,1.63
2023-05-16T11:52:57.415Z,1.90
2023-05-16T11:55:40.614Z,1.93
2023-05-16T11:58:09.634Z,2.10
2023-05-16T12:00:36.459Z,2.07
2023-05-16T12:03:05.448Z,2.00
2023-05-16T12:05:34.656Z,2.40
2023-05-16T12:08:02.716Z,2.30
2023-05-16T12:10:33.633Z,2.40
2023-05-16T12:13:00.635Z,2.40
2023-05-16T12:15:28.504Z,1.93
2023-05-16T12:17:55.877Z,2.20
2023-05-16T12:20:22.723Z,2.50
2023-05-16T12:22:49.473Z,2.50
2023-05-16T12:25:33.653Z,4.07
2023-05-16T12:28:04.841Z,1.90
2023-05-16T12:30:32.798Z,2.50
2023-05-16T12:33:04.396Z,1.87
2023-05-16T12:35:34.573Z,1.50
2023-05-16T12:38:05.687Z,1.93
2023-05-16T12:40:32.604Z,1.90
2023-05-16T12:42:59.683Z,3.50
2023-05-16T12:45:29.420Z,2.87
2023-05-16T12:47:56.342Z,3.60
2023-05-16T12:50:23.264Z,2.60
2023-05-16T12:52:52.034Z,2.00
2023-05-16T12:55:20.566Z,2.10
2023-05-16T12:57:48.807Z,1.67
2023-05-16T13:00:20.981Z,2.20
2023-05-16T13:02:48.973Z,1.87
2023-05-16T13:05:16.115Z,1.90
2023-05-16T13:07:42.894Z,1.50
2023-05-16T13:10:13.323Z,1.60
2023-05-16T13:12:42.195Z,2.30
2023-05-16T13:15:13.757Z,1.70
2023-05-16T13:17:42.652Z,1.60
2023-05-16T13:20:13.404Z,1.87
2023-05-16T13:22:40.778Z,1.80
2023-05-16T13:25:08.164Z,1.70
2023-05-16T13:27:35.025Z,1.53
2023-05-16T13:30:03.422Z,1.90
2023-05-16T13:32:30.754Z,1.60
2023-05-16T13:34:57.573Z,1.60
2023-05-16T13:37:24.557Z,1.20
2023-05-16T13:39:51.384Z,1.57
2023-05-16T13:42:18.160Z,1.43
2023-05-16T13:44:44.986Z,1.40
2023-05-16T13:47:11.851Z,1.37
2023-05-16T13:49:38.995Z,1.70
2023-05-16T13:52:06.651Z,1.40
2023-05-16T13:54:33.653Z,1.90
2023-05-16T13:57:02.116Z,1.60
2023-05-16T13:59:55.193Z,1.57
2023-05-16T14:02:15.827Z,2.00
2023-05-16T14:04:42.673Z,3.63
2023-05-16T14:07:09.438Z,3.50
2023-05-16T14:09:39.184Z,1.60
2023-05-16T14:12:09.442Z,1.47
2023-05-16T14:14:36.289Z,2.10
2023-05-16T14:17:04.222Z,2.80
2023-05-16T14:19:31.680Z,1.80
2023-05-16T14:21:58.605Z,1.50
2023-05-16T14:24:25.445Z,1.60
2023-05-16T14:26:58.090Z,1.90
2023-05-16T14:29:25.615Z,2.30
2023-05-16T14:31:53.085Z,1.80
2023-05-16T14:34:20.592Z,2.10
2023-05-16T14:36:47.855Z,1.80
2023-05-16T14:39:15.635Z,1.73
2023-05-16T14:41:42.322Z,1.40
2023-05-16T14:44:09.783Z,1.90
2023-05-16T14:46:36.585Z,1.73
2023-05-16T14:49:03.808Z,1.60
2023-05-16T14:51:32.205Z,1.60
2023-05-16T14:53:59.021Z,1.50
2023-05-16T14:56:26.914Z,2.60
2023-05-16T14:58:54.146Z,2.73
2023-05-16T15:01:21.426Z,3.57
2023-05-16T15:03:55.538Z,2.10
2023-05-16T15:06:24.032Z,1.90
2023-05-16T15:08:50.937Z,1.90
2023-05-16T15:11:18.158Z,1.90
2023-05-16T15:13:45.038Z,2.50
2023-05-16T15:16:12.163Z,2.27
2023-05-16T15:18:39.070Z,1.70
2023-05-16T15:21:06.256Z,1.90
2023-05-16T15:23:33.180Z,2.03
2023-05-16T15:25:59.932Z,2.07
2023-05-16T15:28:26.621Z,2.03
2023-05-16T15:30:53.458Z,2.50
2023-05-16T15:33:20.240Z,1.97
2023-05-16T15:35:46.976Z,2.73
2023-05-16T15:38:13.858Z,2.30
2023-05-16T15:40:40.932Z,2.30
2023-05-16T15:43:07.667Z,2.10
2023-05-16T15:45:35.337Z,2.53
2023-05-16T15:48:03.500Z,2.83
2023-05-16T15:50:30.734Z,2.70
2023-05-16T15:52:58.384Z,3.00
2023-05-16T15:55:25.505Z,2.47
2023-05-16T15:57:56.865Z,2.10
2023-05-16T16:00:24.486Z,2.37
2023-05-16T16:02:51.599Z,2.40
2023-05-16T16:05:18.529Z,2.57
2023-05-16T16:07:45.257Z,2.20
2023-05-16T16:10:12.540Z,2.03
2023-05-16T16:12:39.574Z,2.10
2023-05-16T16:15:06.899Z,2.40
2023-05-16T16:17:33.949Z,2.43
2023-05-16T16:20:01.099Z,2.97
2023-05-16T16:22:27.911Z,2.87
2023-05-16T16:24:54.628Z,2.70
2023-05-16T16:27:21.397Z,2.73
2023-05-16T16:29:48.307Z,3.27
2023-05-16T16:32:15.105Z,4.27
2023-05-16T16:34:41.840Z,3.70
2023-05-16T16:37:10.102Z,3.60
2023-05-16T16:39:37.297Z,4.13
2023-05-16T16:42:04.271Z,4.13
2023-05-16T16:44:31.101Z,4.80
2023-05-16T16:46:57.990Z,4.30
2023-05-16T16:49:24.780Z,3.60
2023-05-16T16:51:51.470Z,4.17
2023-05-16T16:54:18.317Z,2.80
2023-05-16T16:56:46.763Z,2.97
2023-05-16T16:59:13.701Z,3.43
2023-05-16T17:01:40.650Z,3.70
2023-05-16T17:04:07.616Z,4.03
2023-05-16T17:06:34.405Z,3.47
2023-05-16T17:09:06.719Z,4.30
2023-05-16T17:11:36.181Z,4.40
2023-05-16T17:14:05.883Z,4.10
2023-05-16T17:16:33.369Z,3.33
2023-05-16T17:19:00.252Z,3.30
2023-05-16T17:21:28.015Z,3.70
2023-05-16T17:23:55.173Z,3.20
2023-05-16T17:26:22.048Z,4.10
2023-05-16T17:28:49.520Z,3.10
2023-05-16T17:31:16.566Z,2.47
2023-05-16T17:33:43.425Z,2.47
2023-05-16T17:36:10.858Z,3.50
2023-05-16T17:38:37.731Z,3.10
2023-05-16T17:41:04.693Z,2.30
2023-05-16T17:43:31.469Z,2.23
2023-05-16T17:45:58.509Z,2.07
2023-05-16T17:48:25.351Z,2.03
2023-05-16T17:50:52.042Z,3.47
2023-05-16T17:53:19.003Z,4.07
2023-05-16T17:55:46.335Z,4.07
2023-05-16T17:58:13.363Z,2.80
2023-05-16T18:00:40.115Z,3.00
2023-05-16T18:03:07.169Z,2.70
2023-05-16T18:05:34.102Z,2.37
2023-05-16T18:08:01.025Z,2.87
2023-05-16T18:10:31.580Z,2.73
2023-05-16T18:13:03.679Z,3.13
2023-05-16T18:15:30.751Z,3.27
2023-05-16T18:17:57.762Z,2.80
2023-05-16T18:20:24.663Z,2.63
2023-05-16T18:22:52.294Z,3.33
2023-05-16T18:25:19.705Z,2.37
2023-05-16T18:27:46.567Z,2.83
2023-05-16T18:30:13.630Z,2.50
2023-05-16T18:32:40.720Z,2.77
2023-05-16T18:35:07.766Z,3.10
2023-05-16T18:37:34.602Z,3.00
2023-05-16T18:40:01.486Z,2.60
2023-05-16T18:42:28.248Z,3.07
2023-05-16T18:44:55.095Z,2.87
2023-05-16T18:47:22.003Z,2.80
2023-05-16T18:49:48.984Z,2.70
2023-05-16T18:52:15.740Z,2.30
2023-05-16T18:54:42.549Z,2.53
2023-05-16T18:57:09.347Z,2.30
2023-05-16T18:59:37.148Z,2.93
2023-05-16T19:02:04.867Z,2.67
2023-05-16T19:04:31.783Z,2.50
2023-05-16T19:06:58.717Z,2.57
2023-05-16T19:09:25.711Z,2.10
2023-05-16T19:11:52.756Z,2.20
2023-05-16T19:14:19.607Z,2.37
2023-05-16T19:16:46.543Z,2.97
2023-05-16T19:19:13.424Z,3.40
2023-05-16T19:21:40.451Z,4.03
2023-05-16T19:24:08.315Z,3.97
2023-05-16T19:26:35.026Z,3.43
2023-05-16T19:29:01.780Z,3.30
2023-05-16T19:31:28.516Z,2.73
2023-05-16T19:33:57.689Z,3.20
2023-05-16T19:36:24.498Z,3.27
2023-05-16T19:38:51.367Z,2.60
2023-05-16T19:41:18.171Z,2.37
2023-05-16T19:43:44.987Z,2.67
2023-05-16T19:46:11.846Z,2.63
2023-05-16T19:48:38.781Z,2.73
2023-05-16T19:51:05.676Z,2.50
2023-05-16T19:53:32.429Z,2.30
2023-05-16T19:55:59.160Z,2.70
2023-05-16T19:58:26.532Z,2.73
2023-05-16T20:00:53.632Z,3.20
2023-05-16T20:03:20.573Z,3.30
2023-05-16T20:05:47.482Z,2.83
2023-05-16T20:08:14.232Z,3.30
2023-05-16T20:10:41.151Z,2.80
2023-05-16T20:13:08.278Z,3.83
2023-05-16T20:15:35.074Z,3.53
2023-05-16T20:18:01.968Z,4.83
2023-05-16T20:20:29.904Z,3.47
2023-05-16T20:22:56.710Z,4.17
2023-05-16T20:25:23.451Z,3.57
2023-05-16T20:27:50.184Z,3.20
2023-05-16T20:30:16.980Z,3.20
2023-05-16T20:32:43.810Z,3.60
2023-05-16T20:35:11.365Z,4.30
2023-05-16T20:37:38.361Z,3.90
2023-05-16T20:40:06.192Z,4.73
2023-05-16T20:42:33.212Z,3.80
2023-05-16T20:45:00.086Z,4.10
2023-05-16T20:47:27.533Z,3.67
2023-05-16T20:49:54.680Z,3.87
2023-05-16T20:52:22.078Z,4.50
2023-05-16T20:54:49.148Z,6.70
2023-05-16T20:57:16.272Z,6.37
2023-05-16T20:59:43.088Z,5.67
2023-05-16T21:02:10.277Z,4.73
2023-05-16T21:04:38.127Z,4.97
2023-05-16T21:07:06.898Z,4.90
2023-05-16T21:09:36.946Z,4.30
2023-05-16T21:12:04.406Z,4.80
2023-05-16T21:14:31.106Z,4.23
2023-05-16T21:16:58.954Z,3.80
2023-05-16T21:19:25.825Z,3.53
2023-05-16T21:21:52.658Z,4.90
2023-05-16T21:24:19.452Z,4.20
2023-05-16T21:26:46.174Z,5.10
2023-05-16T21:29:12.902Z,4.70
2023-05-16T21:31:40.274Z,4.60
2023-05-16T21:34:08.442Z,4.40
2023-05-16T21:36:35.998Z,3.80
2023-05-16T21:39:02.833Z,3.93
2023-05-16T21:41:29.610Z,3.87
2023-05-16T21:43:56.318Z,4.63
2023-05-16T21:46:23.021Z,3.67
2023-05-16T21:48:50.142Z,4.20
2023-05-16T21:51:18.194Z,3.73
2023-05-16T21:53:46.553Z,3.60
2023-05-16T21:56:13.569Z,3.77
2023-05-16T21:58:42.355Z,3.63
2023-05-16T22:01:09.316Z,4.10
2023-05-16T22:03:36.165Z,4.67
2023-05-16T22:06:03.105Z,5.80
2023-05-16T22:08:29.915Z,5.93
2023-05-16T22:10:56.754Z,5.80
2023-05-16T22:13:23.478Z,5.23
2023-05-16T22:16:03.353Z,4.63
2023-05-16T22:18:30.653Z,3.60
2023-05-16T22:20:57.587Z,3.40
2023-05-16T22:23:24.559Z,4.00
2023-05-16T22:25:51.336Z,3.50
2023-05-16T22:28:18.478Z,3.60
2023-05-16T22:30:45.267Z,5.13
2023-05-16T22:33:12.071Z,5.00
2023-05-16T22:35:38.857Z,5.13
2023-05-16T22:38:05.858Z,5.13
2023-05-16T22:40:32.621Z,5.07
2023-05-16T22:42:59.316Z,4.77
2023-05-16T22:45:26.338Z,3.73
2023-05-16T22:47:53.184Z,4.07
2023-05-16T22:50:20.077Z,3.43
2023-05-16T22:52:46.971Z,3.23
2023-05-16T22:55:14.147Z,2.90
2023-05-16T22:57:41.076Z,3.10
2023-05-16T23:00:09.074Z,3.57
2023-05-16T23:02:36.021Z,3.80
2023-05-16T23:05:03.418Z,3.50
2023-05-16T23:07:30.568Z,3.83
2023-05-16T23:09:57.337Z,3.20
2023-05-16T23:12:25.268Z,2.93
2023-05-16T23:14:52.054Z,3.50
2023-05-16T23:17:18.765Z,3.03
2023-05-16T23:19:45.800Z,3.10
2023-05-16T23:22:12.602Z,2.90
2023-05-16T23:24:39.383Z,3.03
2023-05-16T23:27:06.269Z,2.80
2023-05-16T23:29:32.986Z,3.80
2023-05-16T23:31:59.937Z,4.37
2023-05-16T23:34:26.679Z,3.60
2023-05-16T23:36:53.382Z,3.90
2023-05-16T23:39:21.391Z,3.90
2023-05-16T23:41:48.134Z,3.83
2023-05-16T23:44:14.917Z,3.30
2023-05-16T23:46:41.794Z,3.77
2023-05-16T23:49:08.499Z,3.40
2023-05-16T23:51:44.950Z,3.20
2023-05-16T23:54:22.200Z,3.13
2023-05-16T23:56:48.974Z,2.87
2023-05-16T23:59:16.413Z,3.03
